sensor_id;sensor_type;location;lat;lon;timestamp;pressure;altitude;pressure_sealevel;temperature;humidity
77410;BME280;66481;51.332;22.804;2023-06-14T00:00:53;99651.34;;;11.45;100.00
77410;BME280;66481;51.332;22.804;2023-06-14T00:05:17;99654.00;;;11.45;100.00
77410;BME280;66481;51.332;22.804;2023-06-14T00:09:18;99650.84;;;11.40;100.00
77410;BME280;66481;51.332;22.804;2023-06-14T00:13:19;99654.56;;;11.38;100.00
77410;BME280;66481;51.332;22.804;2023-06-14T00:17:20;99655.66;;;11.35;100.00
77410;BME280;66481;51.332;22.804;2023-06-14T00:21:21;99649.00;;;11.29;100.00
77410;BME280;66481;51.332;22.804;2023-06-14T00:25:23;99644.69;;;11.28;100.00
77410;BME280;66481;51.332;22.804;2023-06-14T00:29:25;99658.78;;;11.29;100.00
77410;BME280;66481;51.332;22.804;2023-06-14T00:33:27;99652.53;;;11.30;100.00
77410;BME280;66481;51.332;22.804;2023-06-14T00:37:27;99649.75;;;11.32;100.00
77410;BME280;66481;51.332;22.804;2023-06-14T00:41:28;99646.97;;;11.33;100.00
77410;BME280;66481;51.332;22.804;2023-06-14T00:45:30;99644.22;;;11.23;100.00
77410;BME280;66481;51.332;22.804;2023-06-14T00:49:32;99643.72;;;11.29;100.00
77410;BME280;66481;51.332;22.804;2023-06-14T00:53:33;99643.84;;;11.28;100.00
77410;BME280;66481;51.332;22.804;2023-06-14T00:57:40;99637.59;;;11.29;100.00
77410;BME280;66481;51.332;22.804;2023-06-14T01:01:42;99630.59;;;11.28;100.00
77410;BME280;66481;51.332;22.804;2023-06-14T01:05:44;99631.22;;;11.32;100.00
77410;BME280;66481;51.332;22.804;2023-06-14T01:14:16;99630.72;;;11.38;100.00
77410;BME280;66481;51.332;22.804;2023-06-14T01:18:18;99623.00;;;11.35;100.00
77410;BME280;66481;51.332;22.804;2023-06-14T01:22:19;99621.06;;;11.37;100.00
77410;BME280;66481;51.332;22.804;2023-06-14T01:26:22;99619.19;;;11.39;100.00
77410;BME280;66481;51.332;22.804;2023-06-14T01:30:24;99615.31;;;11.32;100.00
77410;BME280;66481;51.332;22.804;2023-06-14T01:34:26;99610.25;;;11.28;100.00
77410;BME280;66481;51.332;22.804;2023-06-14T01:38:27;99613.75;;;11.29;100.00
77410;BME280;66481;51.332;22.804;2023-06-14T01:42:29;99601.59;;;11.26;100.00
77410;BME280;66481;51.332;22.804;2023-06-14T01:46:31;99604.38;;;11.25;100.00
77410;BME280;66481;51.332;22.804;2023-06-14T01:50:33;99609.53;;;11.26;100.00
77410;BME280;66481;51.332;22.804;2023-06-14T01:54:35;99613.88;;;11.27;100.00
77410;BME280;66481;51.332;22.804;2023-06-14T01:58:42;99610.50;;;11.25;100.00
77410;BME280;66481;51.332;22.804;2023-06-14T02:02:45;99601.44;;;11.28;100.00
77410;BME280;66481;51.332;22.804;2023-06-14T02:06:46;99605.09;;;11.27;100.00
77410;BME280;66481;51.332;22.804;2023-06-14T02:10:47;99608.56;;;11.27;100.00
77410;BME280;66481;51.332;22.804;2023-06-14T02:14:48;99611.69;;;11.33;100.00
77410;BME280;66481;51.332;22.804;2023-06-14T02:18:49;99614.00;;;11.37;100.00
77410;BME280;66481;51.332;22.804;2023-06-14T02:22:51;99617.34;;;11.39;100.00
77410;BME280;66481;51.332;22.804;2023-06-14T02:26:52;99613.25;;;11.46;100.00
77410;BME280;66481;51.332;22.804;2023-06-14T02:30:53;99602.78;;;11.34;100.00
77410;BME280;66481;51.332;22.804;2023-06-14T02:34:54;99611.34;;;11.37;100.00
77410;BME280;66481;51.332;22.804;2023-06-14T02:38:55;99606.66;;;11.41;100.00
77410;BME280;66481;51.332;22.804;2023-06-14T02:42:58;99610.97;;;11.42;100.00
77410;BME280;66481;51.332;22.804;2023-06-14T02:46:59;99602.28;;;11.40;100.00
77410;BME280;66481;51.332;22.804;2023-06-14T02:51:01;99612.19;;;11.49;100.00
77410;BME280;66481;51.332;22.804;2023-06-14T02:55:02;99597.13;;;11.50;100.00
77410;BME280;66481;51.332;22.804;2023-06-14T02:59:03;99583.25;;;11.57;100.00
77410;BME280;66481;51.332;22.804;2023-06-14T03:03:04;99580.94;;;11.64;100.00
77410;BME280;66481;51.332;22.804;2023-06-14T03:07:12;99572.63;;;11.69;100.00
77410;BME280;66481;51.332;22.804;2023-06-14T03:11:14;99577.94;;;11.69;100.00
77410;BME280;66481;51.332;22.804;2023-06-14T03:15:15;99574.47;;;11.68;100.00
77410;BME280;66481;51.332;22.804;2023-06-14T03:19:18;99594.44;;;11.72;100.00
77410;BME280;66481;51.332;22.804;2023-06-14T03:23:19;99598.28;;;11.79;100.00
77410;BME280;66481;51.332;22.804;2023-06-14T03:27:20;99584.78;;;12.68;99.55
77410;BME280;66481;51.332;22.804;2023-06-14T03:31:21;99593.63;;;13.51;94.86
77410;BME280;66481;51.332;22.804;2023-06-14T03:35:22;99589.53;;;13.88;90.16
77410;BME280;66481;51.332;22.804;2023-06-14T03:39:23;99593.44;;;13.74;92.56
77410;BME280;66481;51.332;22.804;2023-06-14T03:43:24;99572.13;;;15.84;82.90
77410;BME280;66481;51.332;22.804;2023-06-14T03:47:25;99565.19;;;16.45;78.02
77410;BME280;66481;51.332;22.804;2023-06-14T03:51:27;99571.94;;;16.76;76.55
77410;BME280;66481;51.332;22.804;2023-06-14T03:55:29;99579.16;;;17.01;75.51
77410;BME280;66481;51.332;22.804;2023-06-14T03:59:31;99597.88;;;15.75;79.71
77410;BME280;66481;51.332;22.804;2023-06-14T04:03:32;99614.84;;;15.09;82.38
77410;BME280;66481;51.332;22.804;2023-06-14T04:07:34;99606.09;;;14.40;85.18
77410;BME280;66481;51.332;22.804;2023-06-14T04:11:40;99610.50;;;13.91;87.69
77410;BME280;66481;51.332;22.804;2023-06-14T04:15:41;99618.34;;;13.92;89.26
77410;BME280;66481;51.332;22.804;2023-06-14T04:19:46;99614.50;;;14.26;88.31
77410;BME280;66481;51.332;22.804;2023-06-14T04:23:48;99618.59;;;14.69;85.63
77410;BME280;66481;51.332;22.804;2023-06-14T04:27:49;99619.84;;;14.65;85.46
77410;BME280;66481;51.332;22.804;2023-06-14T04:31:50;99612.66;;;14.56;86.98
77410;BME280;66481;51.332;22.804;2023-06-14T04:35:52;99605.78;;;14.53;86.81
77410;BME280;66481;51.332;22.804;2023-06-14T04:39:55;99614.22;;;14.48;86.17
77410;BME280;66481;51.332;22.804;2023-06-14T04:43:57;99605.81;;;14.34;88.95
77410;BME280;66481;51.332;22.804;2023-06-14T04:48:02;99607.31;;;14.17;88.85
77410;BME280;66481;51.332;22.804;2023-06-14T04:52:04;99613.34;;;14.19;88.29
77410;BME280;66481;51.332;22.804;2023-06-14T04:56:05;99605.09;;;14.02;87.35
77410;BME280;66481;51.332;22.804;2023-06-14T05:00:07;99606.34;;;13.98;88.11
77410;BME280;66481;51.332;22.804;2023-06-14T05:04:10;99616.69;;;14.01;86.72
77410;BME280;66481;51.332;22.804;2023-06-14T05:08:10;99616.28;;;14.06;87.19
77410;BME280;66481;51.332;22.804;2023-06-14T05:12:11;99620.81;;;14.35;88.83
77410;BME280;66481;51.332;22.804;2023-06-14T05:16:12;99620.78;;;14.54;87.54
77410;BME280;66481;51.332;22.804;2023-06-14T05:20:16;99613.91;;;14.52;85.63
77410;BME280;66481;51.332;22.804;2023-06-14T05:24:17;99616.75;;;14.60;86.27
77410;BME280;66481;51.332;22.804;2023-06-14T05:28:18;99603.66;;;14.86;85.46
77410;BME280;66481;51.332;22.804;2023-06-14T05:32:20;99605.16;;;15.08;83.29
77410;BME280;66481;51.332;22.804;2023-06-14T05:36:21;99601.78;;;15.16;83.19
77410;BME280;66481;51.332;22.804;2023-06-14T05:40:22;99603.69;;;15.33;82.24
77410;BME280;66481;51.332;22.804;2023-06-14T05:44:24;99589.44;;;15.80;79.19
77410;BME280;66481;51.332;22.804;2023-06-14T05:48:25;99585.59;;;16.90;75.06
77410;BME280;66481;51.332;22.804;2023-06-14T05:52:26;99599.50;;;16.94;73.13
77410;BME280;66481;51.332;22.804;2023-06-14T05:56:27;99584.59;;;18.11;72.62
77410;BME280;66481;51.332;22.804;2023-06-14T06:00:28;99581.63;;;19.84;64.29
77410;BME280;66481;51.332;22.804;2023-06-14T06:04:29;99591.88;;;21.26;58.88
77410;BME280;66481;51.332;22.804;2023-06-14T06:08:30;99574.84;;;21.85;57.53
77410;BME280;66481;51.332;22.804;2023-06-14T06:12:32;99591.75;;;22.15;54.05
77410;BME280;66481;51.332;22.804;2023-06-14T06:16:33;99584.94;;;21.97;53.79
77410;BME280;66481;51.332;22.804;2023-06-14T06:20:34;99594.47;;;20.89;58.34
77410;BME280;66481;51.332;22.804;2023-06-14T06:24:38;99603.88;;;20.70;56.56
77410;BME280;66481;51.332;22.804;2023-06-14T06:28:39;99603.25;;;20.14;60.28
77410;BME280;66481;51.332;22.804;2023-06-14T06:32:40;99604.44;;;19.40;60.72
77410;BME280;66481;51.332;22.804;2023-06-14T06:36:41;99598.69;;;18.95;61.42
77410;BME280;66481;51.332;22.804;2023-06-14T06:40:43;99602.94;;;20.08;57.82
77410;BME280;66481;51.332;22.804;2023-06-14T06:44:43;99612.03;;;19.20;59.24
77410;BME280;66481;51.332;22.804;2023-06-14T06:48:45;99607.75;;;20.21;57.40
77410;BME280;66481;51.332;22.804;2023-06-14T06:52:46;99603.88;;;20.24;58.85
77410;BME280;66481;51.332;22.804;2023-06-14T06:56:47;99592.06;;;22.05;54.63
77410;BME280;66481;51.332;22.804;2023-06-14T07:00:48;99594.97;;;24.21;50.68
77410;BME280;66481;51.332;22.804;2023-06-14T07:04:49;99584.22;;;24.75;46.37
77410;BME280;66481;51.332;22.804;2023-06-14T07:08:50;99594.00;;;24.76;46.28
77410;BME280;66481;51.332;22.804;2023-06-14T07:12:52;99605.72;;;23.88;47.37
77410;BME280;66481;51.332;22.804;2023-06-14T07:16:53;99623.75;;;22.03;55.04
77410;BME280;66481;51.332;22.804;2023-06-14T07:20:54;99618.59;;;21.42;55.48
77410;BME280;66481;51.332;22.804;2023-06-14T07:24:55;99626.31;;;21.15;55.79
77410;BME280;66481;51.332;22.804;2023-06-14T07:28:56;99624.59;;;20.61;58.38
77410;BME280;66481;51.332;22.804;2023-06-14T07:32:57;99640.22;;;19.64;60.36
77410;BME280;66481;51.332;22.804;2023-06-14T07:36:58;99641.84;;;19.42;62.35
77410;BME280;66481;51.332;22.804;2023-06-14T07:41:00;99636.56;;;19.09;63.62
77410;BME280;66481;51.332;22.804;2023-06-14T07:45:05;99636.03;;;18.64;64.24
77410;BME280;66481;51.332;22.804;2023-06-14T07:49:06;99617.59;;;18.36;65.23
77410;BME280;66481;51.332;22.804;2023-06-14T07:53:07;99633.00;;;18.26;68.32
77410;BME280;66481;51.332;22.804;2023-06-14T07:57:08;99627.94;;;18.15;67.50
77410;BME280;66481;51.332;22.804;2023-06-14T08:01:09;99624.97;;;18.42;65.41
77410;BME280;66481;51.332;22.804;2023-06-14T08:05:11;99627.19;;;18.96;62.16
77410;BME280;66481;51.332;22.804;2023-06-14T08:09:13;99622.38;;;20.19;62.25
77410;BME280;66481;51.332;22.804;2023-06-14T08:13:14;99606.69;;;20.77;57.57
77410;BME280;66481;51.332;22.804;2023-06-14T08:17:15;99603.84;;;21.08;56.75
77410;BME280;66481;51.332;22.804;2023-06-14T08:21:16;99607.75;;;20.67;54.15
77410;BME280;66481;51.332;22.804;2023-06-14T08:25:17;99600.66;;;20.28;59.20
77410;BME280;66481;51.332;22.804;2023-06-14T08:29:19;99593.50;;;20.59;57.46
77410;BME280;66481;51.332;22.804;2023-06-14T08:33:20;99600.25;;;20.08;58.04
77410;BME280;66481;51.332;22.804;2023-06-14T08:37:21;99591.72;;;19.82;58.78
77410;BME280;66481;51.332;22.804;2023-06-14T08:41:22;99604.09;;;20.98;54.34
77410;BME280;66481;51.332;22.804;2023-06-14T08:45:28;99593.06;;;20.78;54.69
77410;BME280;66481;51.332;22.804;2023-06-14T08:49:29;99588.81;;;20.15;54.99
77410;BME280;66481;51.332;22.804;2023-06-14T08:53:32;99584.97;;;21.83;50.04
77410;BME280;66481;51.332;22.804;2023-06-14T08:57:36;99566.94;;;22.91;51.89
77410;BME280;66481;51.332;22.804;2023-06-14T09:01:38;99585.34;;;20.90;54.53
77410;BME280;66481;51.332;22.804;2023-06-14T09:05:40;99583.34;;;23.24;51.64
77410;BME280;66481;51.332;22.804;2023-06-14T09:09:41;99590.72;;;22.16;49.82
77410;BME280;66481;51.332;22.804;2023-06-14T09:13:46;99581.56;;;22.53;49.96
77410;BME280;66481;51.332;22.804;2023-06-14T09:17:47;99581.94;;;23.35;46.04
77410;BME280;66481;51.332;22.804;2023-06-14T09:21:49;99594.44;;;22.51;48.95
77410;BME280;66481;51.332;22.804;2023-06-14T09:25:50;99589.91;;;22.37;51.53
77410;BME280;66481;51.332;22.804;2023-06-14T09:29:51;99589.97;;;21.49;51.56
77410;BME280;66481;51.332;22.804;2023-06-14T09:33:52;99592.34;;;20.99;51.35
77410;BME280;66481;51.332;22.804;2023-06-14T09:37:55;99590.91;;;22.29;48.87
77410;BME280;66481;51.332;22.804;2023-06-14T09:41:57;99586.88;;;21.52;51.13
77410;BME280;66481;51.332;22.804;2023-06-14T09:45:58;99590.63;;;21.88;52.27
77410;BME280;66481;51.332;22.804;2023-06-14T09:49:59;99599.78;;;21.27;49.10
77410;BME280;66481;51.332;22.804;2023-06-14T09:54:02;99588.19;;;21.56;52.45
77410;BME280;66481;51.332;22.804;2023-06-14T09:58:06;99592.81;;;21.99;48.84
77410;BME280;66481;51.332;22.804;2023-06-14T10:02:35;99588.25;;;22.36;49.35
77410;BME280;66481;51.332;22.804;2023-06-14T10:06:43;99590.28;;;21.31;52.11
77410;BME280;66481;51.332;22.804;2023-06-14T10:10:44;99593.13;;;20.70;53.40
77410;BME280;66481;51.332;22.804;2023-06-14T10:14:45;99590.66;;;20.37;57.32
77410;BME280;66481;51.332;22.804;2023-06-14T10:23:11;99603.38;;;18.52;62.28
77410;BME280;66481;51.332;22.804;2023-06-14T10:27:14;99603.16;;;17.96;65.81
77410;BME280;66481;51.332;22.804;2023-06-14T10:31:17;99607.00;;;18.02;66.42
77410;BME280;66481;51.332;22.804;2023-06-14T10:35:18;99605.34;;;18.09;65.33
77410;BME280;66481;51.332;22.804;2023-06-14T10:39:19;99604.81;;;17.97;65.43
77410;BME280;66481;51.332;22.804;2023-06-14T10:43:22;99596.47;;;18.09;66.92
77410;BME280;66481;51.332;22.804;2023-06-14T10:47:45;99599.97;;;18.09;65.99
77410;BME280;66481;51.332;22.804;2023-06-14T10:51:50;99607.03;;;18.27;66.71
77410;BME280;66481;51.332;22.804;2023-06-14T10:55:52;99608.41;;;18.31;64.88
77410;BME280;66481;51.332;22.804;2023-06-14T10:59:53;99609.22;;;18.31;65.71
77410;BME280;66481;51.332;22.804;2023-06-14T11:03:56;99606.34;;;18.16;64.84
77410;BME280;66481;51.332;22.804;2023-06-14T11:12:07;99606.19;;;18.01;66.15
77410;BME280;66481;51.332;22.804;2023-06-14T11:16:15;99598.75;;;17.87;68.06
77410;BME280;66481;51.332;22.804;2023-06-14T11:20:17;99604.16;;;18.03;68.21
77410;BME280;66481;51.332;22.804;2023-06-14T11:24:19;99603.53;;;18.42;66.99
77410;BME280;66481;51.332;22.804;2023-06-14T11:28:20;99586.44;;;19.01;64.86
77410;BME280;66481;51.332;22.804;2023-06-14T11:32:22;99588.81;;;19.52;63.86
77410;BME280;66481;51.332;22.804;2023-06-14T11:36:27;99583.06;;;19.55;63.14
77410;BME280;66481;51.332;22.804;2023-06-14T11:40:31;99583.50;;;19.27;63.28
77410;BME280;66481;51.332;22.804;2023-06-14T11:44:32;99584.28;;;18.88;64.91
77410;BME280;66481;51.332;22.804;2023-06-14T11:48:38;99586.28;;;18.20;64.67
77410;BME280;66481;51.332;22.804;2023-06-14T11:52:41;99591.00;;;17.76;66.41
77410;BME280;66481;51.332;22.804;2023-06-14T11:56:43;99589.25;;;17.50;69.30
77410;BME280;66481;51.332;22.804;2023-06-14T12:00:48;99596.50;;;17.23;68.53
77410;BME280;66481;51.332;22.804;2023-06-14T12:04:50;99602.97;;;17.21;68.77
77410;BME280;66481;51.332;22.804;2023-06-14T12:08:55;99606.41;;;17.05;72.03
77410;BME280;66481;51.332;22.804;2023-06-14T12:12:58;99613.25;;;17.07;72.33
77410;BME280;66481;51.332;22.804;2023-06-14T12:17:06;99608.19;;;16.78;73.45
77410;BME280;66481;51.332;22.804;2023-06-14T12:21:10;99614.16;;;16.72;71.67
77410;BME280;66481;51.332;22.804;2023-06-14T12:29:32;99617.22;;;16.59;74.49
77410;BME280;66481;51.332;22.804;2023-06-14T12:33:34;99619.59;;;16.62;75.01
77410;BME280;66481;51.332;22.804;2023-06-14T12:37:35;99621.44;;;16.62;74.59
77410;BME280;66481;51.332;22.804;2023-06-14T12:41:37;99617.31;;;16.49;75.11
77410;BME280;66481;51.332;22.804;2023-06-14T12:45:38;99619.22;;;16.39;76.86
77410;BME280;66481;51.332;22.804;2023-06-14T12:49:39;99614.41;;;16.43;82.60
77410;BME280;66481;51.332;22.804;2023-06-14T12:53:41;99610.28;;;16.48;80.28
77410;BME280;66481;51.332;22.804;2023-06-14T12:57:42;99618.81;;;16.52;82.64
77410;BME280;66481;51.332;22.804;2023-06-14T13:01:43;99622.50;;;16.33;83.71
77410;BME280;66481;51.332;22.804;2023-06-14T13:05:45;99629.81;;;16.13;87.14
77410;BME280;66481;51.332;22.804;2023-06-14T13:09:46;99628.41;;;15.91;88.07
77410;BME280;66481;51.332;22.804;2023-06-14T13:29:27;99623.03;;;16.01;88.92
77410;BME280;66481;51.332;22.804;2023-06-14T13:33:28;99625.47;;;16.30;89.39
77410;BME280;66481;51.332;22.804;2023-06-14T13:37:29;99617.97;;;16.69;90.60
77410;BME280;66481;51.332;22.804;2023-06-14T13:41:31;99614.34;;;17.23;89.49
77410;BME280;66481;51.332;22.804;2023-06-14T13:45:34;99630.00;;;17.44;85.90
77410;BME280;66481;51.332;22.804;2023-06-14T13:49:35;99618.91;;;17.73;84.92
77410;BME280;66481;51.332;22.804;2023-06-14T13:53:37;99608.47;;;17.88;84.14
77410;BME280;66481;51.332;22.804;2023-06-14T13:57:38;99611.22;;;18.21;84.05
77410;BME280;66481;51.332;22.804;2023-06-14T14:01:39;99599.16;;;18.25;83.54
77410;BME280;66481;51.332;22.804;2023-06-14T14:05:40;99591.97;;;18.42;82.05
77410;BME280;66481;51.332;22.804;2023-06-14T14:09:41;99589.66;;;18.55;81.29
77410;BME280;66481;51.332;22.804;2023-06-14T14:13:43;99600.53;;;18.46;80.20
77410;BME280;66481;51.332;22.804;2023-06-14T14:17:45;99594.00;;;18.81;79.80
77410;BME280;66481;51.332;22.804;2023-06-14T14:21:48;99602.03;;;18.89;77.92
77410;BME280;66481;51.332;22.804;2023-06-14T14:25:48;99596.31;;;19.01;76.81
77410;BME280;66481;51.332;22.804;2023-06-14T14:29:49;99601.84;;;19.15;78.24
77410;BME280;66481;51.332;22.804;2023-06-14T14:33:50;99596.31;;;19.09;74.41
77410;BME280;66481;51.332;22.804;2023-06-14T14:37:52;99597.63;;;19.21;73.72
77410;BME280;66481;51.332;22.804;2023-06-14T14:41:53;99586.56;;;19.16;75.97
77410;BME280;66481;51.332;22.804;2023-06-14T14:45:54;99592.78;;;19.08;76.37
77410;BME280;66481;51.332;22.804;2023-06-14T14:49:55;99588.09;;;19.10;74.69
77410;BME280;66481;51.332;22.804;2023-06-14T14:53:55;99577.41;;;18.77;72.85
77410;BME280;66481;51.332;22.804;2023-06-14T14:57:57;99573.88;;;18.44;75.88
77410;BME280;66481;51.332;22.804;2023-06-14T15:01:58;99585.44;;;18.53;77.81
77410;BME280;66481;51.332;22.804;2023-06-14T15:05:59;99581.75;;;18.46;77.23
77410;BME280;66481;51.332;22.804;2023-06-14T15:10:01;99584.94;;;18.66;77.93
77410;BME280;66481;51.332;22.804;2023-06-14T15:14:02;99575.56;;;18.61;77.64
77410;BME280;66481;51.332;22.804;2023-06-14T15:18:03;99579.91;;;18.13;74.87
77410;BME280;66481;51.332;22.804;2023-06-14T15:22:05;99565.94;;;17.85;76.27
77410;BME280;66481;51.332;22.804;2023-06-14T15:26:06;99572.28;;;17.76;77.33
77410;BME280;66481;51.332;22.804;2023-06-14T15:30:08;99565.47;;;17.90;76.25
77410;BME280;66481;51.332;22.804;2023-06-14T15:34:09;99572.34;;;18.00;73.84
77410;BME280;66481;51.332;22.804;2023-06-14T15:38:10;99578.13;;;17.79;76.21
77410;BME280;66481;51.332;22.804;2023-06-14T15:42:11;99572.13;;;17.77;77.57
77410;BME280;66481;51.332;22.804;2023-06-14T15:46:13;99575.41;;;17.63;75.84
77410;BME280;66481;51.332;22.804;2023-06-14T15:50:14;99576.84;;;17.41;79.45
77410;BME280;66481;51.332;22.804;2023-06-14T15:54:19;99585.59;;;17.25;80.29
77410;BME280;66481;51.332;22.804;2023-06-14T15:58:21;99585.25;;;17.20;83.89
77410;BME280;66481;51.332;22.804;2023-06-14T16:02:23;99574.31;;;17.05;85.70
77410;BME280;66481;51.332;22.804;2023-06-14T16:06:28;99583.75;;;16.91;84.36
77410;BME280;66481;51.332;22.804;2023-06-14T16:10:30;99575.44;;;16.76;85.64
77410;BME280;66481;51.332;22.804;2023-06-14T16:14:31;99584.91;;;16.70;86.02
77410;BME280;66481;51.332;22.804;2023-06-14T16:18:32;99579.63;;;16.79;86.04
77410;BME280;66481;51.332;22.804;2023-06-14T16:22:34;99576.81;;;16.80;87.17
77410;BME280;66481;51.332;22.804;2023-06-14T16:26:35;99572.00;;;16.66;86.68
77410;BME280;66481;51.332;22.804;2023-06-14T16:30:37;99559.16;;;16.61;88.61
77410;BME280;66481;51.332;22.804;2023-06-14T16:34:38;99562.88;;;16.68;87.86
77410;BME280;66481;51.332;22.804;2023-06-14T16:38:39;99568.53;;;16.65;88.72
77410;BME280;66481;51.332;22.804;2023-06-14T16:42:41;99572.66;;;16.60;88.19
77410;BME280;66481;51.332;22.804;2023-06-14T16:46:42;99571.97;;;16.58;88.09
77410;BME280;66481;51.332;22.804;2023-06-14T16:50:44;99563.53;;;16.44;88.32
77410;BME280;66481;51.332;22.804;2023-06-14T16:54:45;99566.34;;;16.43;88.20
77410;BME280;66481;51.332;22.804;2023-06-14T16:58:46;99569.16;;;16.41;88.01
77410;BME280;66481;51.332;22.804;2023-06-14T17:02:47;99579.69;;;16.43;87.48
77410;BME280;66481;51.332;22.804;2023-06-14T17:06:48;99577.97;;;16.33;87.33
77410;BME280;66481;51.332;22.804;2023-06-14T17:10:50;99577.25;;;16.13;88.89
77410;BME280;66481;51.332;22.804;2023-06-14T17:14:52;99580.72;;;16.06;89.12
77410;BME280;66481;51.332;22.804;2023-06-14T17:18:53;99582.22;;;16.08;89.84
77410;BME280;66481;51.332;22.804;2023-06-14T17:22:55;99588.53;;;16.07;90.42
77410;BME280;66481;51.332;22.804;2023-06-14T17:26:57;99579.69;;;16.07;90.95
77410;BME280;66481;51.332;22.804;2023-06-14T17:30:59;99601.75;;;16.09;92.07
77410;BME280;66481;51.332;22.804;2023-06-14T17:35:00;99590.75;;;16.12;91.34
77410;BME280;66481;51.332;22.804;2023-06-14T17:39:03;99596.09;;;16.12;92.72
77410;BME280;66481;51.332;22.804;2023-06-14T17:43:04;99598.00;;;16.02;93.63
77410;BME280;66481;51.332;22.804;2023-06-14T17:47:05;99595.34;;;16.02;92.98
77410;BME280;66481;51.332;22.804;2023-06-14T17:51:07;99587.03;;;16.05;93.23
77410;BME280;66481;51.332;22.804;2023-06-14T17:55:08;99605.56;;;16.06;93.44
77410;BME280;66481;51.332;22.804;2023-06-14T17:59:09;99598.28;;;15.98;93.19
77410;BME280;66481;51.332;22.804;2023-06-14T18:03:11;99600.13;;;15.98;94.04
77410;BME280;66481;51.332;22.804;2023-06-14T18:07:12;99598.16;;;16.00;94.54
77410;BME280;66481;51.332;22.804;2023-06-14T18:11:14;99594.63;;;15.82;95.99
77410;BME280;66481;51.332;22.804;2023-06-14T18:15:16;99597.88;;;15.75;95.41
77410;BME280;66481;51.332;22.804;2023-06-14T18:19:17;99587.84;;;15.59;95.91
77410;BME280;66481;51.332;22.804;2023-06-14T18:23:19;99596.03;;;15.48;96.03
77410;BME280;66481;51.332;22.804;2023-06-14T18:27:21;99594.94;;;15.41;95.22
77410;BME280;66481;51.332;22.804;2023-06-14T18:31:22;99595.28;;;15.28;94.83
77410;BME280;66481;51.332;22.804;2023-06-14T18:35:24;99600.22;;;15.23;94.69
77410;BME280;66481;51.332;22.804;2023-06-14T18:39:28;99599.69;;;15.10;94.43
77410;BME280;66481;51.332;22.804;2023-06-14T18:43:30;99601.13;;;15.04;95.05
77410;BME280;66481;51.332;22.804;2023-06-14T18:47:34;99601.13;;;14.94;94.77
77410;BME280;66481;51.332;22.804;2023-06-14T18:51:37;99607.34;;;14.85;95.71
77410;BME280;66481;51.332;22.804;2023-06-14T18:55:41;99622.34;;;14.76;96.23
77410;BME280;66481;51.332;22.804;2023-06-14T18:59:44;99604.69;;;14.65;96.77
77410;BME280;66481;51.332;22.804;2023-06-14T19:03:46;99604.53;;;14.47;97.98
77410;BME280;66481;51.332;22.804;2023-06-14T19:07:47;99604.13;;;14.42;97.24
77410;BME280;66481;51.332;22.804;2023-06-14T19:11:49;99618.00;;;14.36;97.24
77410;BME280;66481;51.332;22.804;2023-06-14T19:15:51;99614.31;;;14.08;98.34
77410;BME280;66481;51.332;22.804;2023-06-14T19:19:53;99606.75;;;13.94;98.68
77410;BME280;66481;51.332;22.804;2023-06-14T19:23:54;99611.72;;;13.67;99.43
77410;BME280;66481;51.332;22.804;2023-06-14T19:27:57;99626.38;;;13.52;99.74
77410;BME280;66481;51.332;22.804;2023-06-14T19:31:59;99633.03;;;13.37;100.00
77410;BME280;66481;51.332;22.804;2023-06-14T19:36:00;99625.31;;;13.12;100.00
77410;BME280;66481;51.332;22.804;2023-06-14T19:40:02;99629.59;;;13.04;100.00
77410;BME280;66481;51.332;22.804;2023-06-14T19:44:04;99641.94;;;13.05;100.00
77410;BME280;66481;51.332;22.804;2023-06-14T19:48:05;99649.28;;;13.01;100.00
77410;BME280;66481;51.332;22.804;2023-06-14T19:52:07;99641.19;;;13.03;100.00
77410;BME280;66481;51.332;22.804;2023-06-14T19:56:08;99640.38;;;13.02;100.00
77410;BME280;66481;51.332;22.804;2023-06-14T20:00:11;99642.44;;;12.98;100.00
77410;BME280;66481;51.332;22.804;2023-06-14T20:04:13;99638.88;;;12.88;100.00
77410;BME280;66481;51.332;22.804;2023-06-14T20:08:14;99636.75;;;12.82;100.00
77410;BME280;66481;51.332;22.804;2023-06-14T20:12:26;99636.44;;;12.75;100.00
77410;BME280;66481;51.332;22.804;2023-06-14T20:16:35;99642.63;;;12.65;100.00
77410;BME280;66481;51.332;22.804;2023-06-14T20:20:51;99632.75;;;12.88;100.00
77410;BME280;66481;51.332;22.804;2023-06-14T20:24:55;99638.22;;;12.75;100.00
77410;BME280;66481;51.332;22.804;2023-06-14T20:28:58;99632.53;;;12.79;100.00
77410;BME280;66481;51.332;22.804;2023-06-14T20:33:07;99640.63;;;12.78;100.00
77410;BME280;66481;51.332;22.804;2023-06-14T20:37:15;99646.50;;;12.82;100.00
77410;BME280;66481;51.332;22.804;2023-06-14T20:41:17;99634.84;;;12.73;100.00
77410;BME280;66481;51.332;22.804;2023-06-14T20:45:20;99641.41;;;12.69;100.00
77410;BME280;66481;51.332;22.804;2023-06-14T20:49:23;99633.69;;;12.66;100.00
77410;BME280;66481;51.332;22.804;2023-06-14T20:53:27;99636.59;;;12.63;100.00
77410;BME280;66481;51.332;22.804;2023-06-14T20:57:29;99641.66;;;12.66;100.00
77410;BME280;66481;51.332;22.804;2023-06-14T21:01:30;99628.00;;;12.70;100.00
77410;BME280;66481;51.332;22.804;2023-06-14T21:05:36;99626.13;;;12.82;100.00
77410;BME280;66481;51.332;22.804;2023-06-14T21:09:37;99635.38;;;12.88;100.00
77410;BME280;66481;51.332;22.804;2023-06-14T21:13:42;99639.91;;;12.97;100.00
77410;BME280;66481;51.332;22.804;2023-06-14T21:22:00;99650.59;;;13.07;100.00
77410;BME280;66481;51.332;22.804;2023-06-14T21:26:01;99656.38;;;13.12;100.00
77410;BME280;66481;51.332;22.804;2023-06-14T21:30:03;99660.69;;;13.13;100.00
77410;BME280;66481;51.332;22.804;2023-06-14T21:34:05;99658.31;;;13.10;100.00
77410;BME280;66481;51.332;22.804;2023-06-14T21:38:06;99662.03;;;13.28;100.00